Time;durP1;ratioP1;P1;durP2;ratioP2;P2;SDS_P1;SDS_P2;PMS_P1;PMS_P2;Temp;Humidity;BMP_temperature;BMP_pressure;BME280_temperature;BME280_humidity;BME280_pressure;Samples;Min_cycle;Max_cycle;Signal;HPM_P1;HPM_P2
2021/12/27 00:02:06;;;;;;;21.17;18.98;;;;;;;;;;4910052;29;20083;-69
2021/12/27 00:04:32;;;;;;;21.02;18.33;;;;;;;;;;4903518;29;20036;-69
2021/12/27 00:06:58;;;;;;;22.90;18.45;;;;;;;;;;4909529;29;20044;-69
2021/12/27 00:09:24;;;;;;;21.15;19.05;;;;;;;;;;4906481;29;20482;-69
2021/12/27 00:11:49;;;;;;;22.77;18.08;;;;;;;;;;4909960;29;20067;-69
2021/12/27 00:14:15;;;;;;;22.95;18.63;;;;;;;;;;4915377;29;20071;-68
2021/12/27 00:16:41;;;;;;;21.45;18.25;;;;;;;;;;4914337;29;20071;-69
2021/12/27 00:19:06;;;;;;;21.45;19.15;;;;;;;;;;4910705;29;20032;-68
2021/12/27 00:21:32;;;;;;;22.05;19.35;;;;;;;;;;4910574;29;20431;-69
2021/12/27 00:23:58;;;;;;;26.33;19.98;;;;;;;;;;4915412;29;20039;-69
2021/12/27 00:26:23;;;;;;;31.33;22.42;;;;;;;;;;4911592;29;20040;-69
2021/12/27 00:28:51;;;;;;;27.23;21.10;;;;;;;;;;4927542;29;20044;-69
2021/12/27 00:31:16;;;;;;;26.85;20.20;;;;;;;;;;4911417;29;20052;-69
2021/12/27 00:33:42;;;;;;;21.48;19.17;;;;;;;;;;4920454;29;20032;-69
2021/12/27 00:36:08;;;;;;;24.98;20.75;;;;;;;;;;4917634;29;20036;-69
2021/12/27 00:38:34;;;;;;;26.90;21.63;;;;;;;;;;4914062;29;20369;-69
2021/12/27 00:40:59;;;;;;;32.50;22.33;;;;;;;;;;4915556;29;20046;-69
2021/12/27 00:43:25;;;;;;;32.05;22.63;;;;;;;;;;4919586;29;20044;-69
2021/12/27 00:45:51;;;;;;;27.13;21.45;;;;;;;;;;4912939;29;20055;-69
2021/12/27 00:48:17;;;;;;;26.27;20.63;;;;;;;;;;4913871;29;20043;-67
2021/12/27 00:50:44;;;;;;;24.30;20.77;;;;;;;;;;4918150;29;20059;-68
2021/12/27 00:53:10;;;;;;;24.23;20.02;;;;;;;;;;4916367;29;20261;-67
2021/12/27 00:55:36;;;;;;;24.70;20.63;;;;;;;;;;4913725;29;20051;-68
2021/12/27 00:58:01;;;;;;;23.02;20.58;;;;;;;;;;4915234;29;20056;-68
2021/12/27 01:00:27;;;;;;;24.30;20.17;;;;;;;;;;4920434;29;20039;-67
2021/12/27 01:02:54;;;;;;;24.23;20.38;;;;;;;;;;4913453;29;20090;-68
2021/12/27 01:05:22;;;;;;;25.55;20.45;;;;;;;;;;4912528;29;20048;-68
2021/12/27 01:07:48;;;;;;;24.23;20.58;;;;;;;;;;4917134;29;20036;-68
2021/12/27 01:17:46;;;;;;;23.00;20.17;;;;;;;;;;4916764;29;20068;-68
2021/12/27 01:20:16;;;;;;;23.30;20.77;;;;;;;;;;4919507;29;20051;-67
2021/12/27 01:22:41;;;;;;;22.10;19.75;;;;;;;;;;4912440;29;20080;-68
2021/12/27 01:25:09;;;;;;;21.58;19.23;;;;;;;;;;4911866;29;20068;-68
2021/12/27 01:27:35;;;;;;;22.65;19.80;;;;;;;;;;4914565;29;20067;-67
2021/12/27 01:30:03;;;;;;;148.35;20.33;;;;;;;;;;4912867;29;20079;-68
2021/12/27 01:32:34;;;;;;;461.75;26.15;;;;;;;;;;4912830;29;20044;-67
2021/12/27 01:34:59;;;;;;;383.98;24.80;;;;;;;;;;4913729;29;20032;-68
2021/12/27 01:37:25;;;;;;;169.75;21.02;;;;;;;;;;4919639;29;20039;-68
2021/12/27 01:39:51;;;;;;;124.50;20.55;;;;;;;;;;4912567;29;20036;-67
2021/12/27 01:42:17;;;;;;;26.15;19.80;;;;;;;;;;4911702;29;20028;-68
2021/12/27 01:44:42;;;;;;;25.30;20.20;;;;;;;;;;4916490;29;20071;-67
2021/12/27 01:47:09;;;;;;;24.45;20.58;;;;;;;;;;4913379;29;20088;-67
2021/12/27 01:49:37;;;;;;;25.88;20.48;;;;;;;;;;4912326;29;20076;-67
2021/12/27 01:52:06;;;;;;;27.88;22.80;;;;;;;;;;4902464;29;20032;-67
2021/12/27 01:54:32;;;;;;;27.25;21.92;;;;;;;;;;4914690;29;20524;-67
2021/12/27 01:56:59;;;;;;;26.73;21.73;;;;;;;;;;4912594;29;20695;-67
2021/12/27 01:59:25;;;;;;;25.92;22.08;;;;;;;;;;4911628;29;20480;-67
2021/12/27 02:01:51;;;;;;;28.27;20.60;;;;;;;;;;4898586;29;20096;-67
2021/12/27 02:04:16;;;;;;;25.20;21.02;;;;;;;;;;4912776;29;20083;-67
2021/12/27 02:06:42;;;;;;;26.88;19.75;;;;;;;;;;4927331;29;20457;-67
2021/12/27 02:09:07;;;;;;;27.00;21.20;;;;;;;;;;4911634;29;20040;-68
2021/12/27 02:11:34;;;;;;;23.40;18.83;;;;;;;;;;4913837;29;20381;-67
2021/12/27 02:14:02;;;;;;;23.63;19.10;;;;;;;;;;4912495;29;20047;-67
2021/12/27 02:16:27;;;;;;;27.38;20.55;;;;;;;;;;4910743;29;20440;-68
2021/12/27 02:18:53;;;;;;;25.13;20.38;;;;;;;;;;4917532;29;20387;-68
2021/12/27 02:21:20;;;;;;;25.50;20.27;;;;;;;;;;4912601;29;20036;-67
2021/12/27 02:23:48;;;;;;;26.50;20.40;;;;;;;;;;4912325;29;20040;-67
2021/12/27 02:26:14;;;;;;;26.27;20.65;;;;;;;;;;4913588;29;20042;-68
2021/12/27 02:28:40;;;;;;;73.15;20.20;;;;;;;;;;4914435;29;20123;-68
2021/12/27 02:31:07;;;;;;;70.90;19.48;;;;;;;;;;4915331;29;20052;-68
2021/12/27 02:33:35;;;;;;;27.48;21.25;;;;;;;;;;4911701;29;20048;-68
2021/12/27 02:36:01;;;;;;;26.42;20.98;;;;;;;;;;4913250;29;20042;-68
2021/12/27 02:38:33;;;;;;;25.40;20.75;;;;;;;;;;4912441;29;20039;-67
2021/12/27 02:40:59;;;;;;;26.35;20.05;;;;;;;;;;4911902;29;20530;-68
2021/12/27 02:43:27;;;;;;;26.70;22.08;;;;;;;;;;4911689;29;20040;-67
2021/12/27 02:45:55;;;;;;;26.80;21.60;;;;;;;;;;4918746;29;20074;-67
2021/12/27 02:48:25;;;;;;;26.25;21.45;;;;;;;;;;4912333;29;20095;-68
2021/12/27 02:50:52;;;;;;;27.65;20.95;;;;;;;;;;4910788;29;20032;-68
2021/12/27 02:53:18;;;;;;;28.65;21.52;;;;;;;;;;4910949;29;20044;-68
2021/12/27 02:55:47;;;;;;;28.00;21.85;;;;;;;;;;4913554;29;20126;-68
2021/12/27 02:58:12;;;;;;;24.35;21.20;;;;;;;;;;4911538;29;20070;-68
2021/12/27 03:00:45;;;;;;;27.77;20.60;;;;;;;;;;4910710;29;20064;-67
2021/12/27 03:03:10;;;;;;;25.65;20.63;;;;;;;;;;4909941;29;20107;-68
2021/12/27 03:05:36;;;;;;;29.13;22.33;;;;;;;;;;4913635;29;20476;-68
2021/12/27 03:08:03;;;;;;;29.75;21.38;;;;;;;;;;4911524;29;20040;-68
2021/12/27 03:10:33;;;;;;;26.10;21.10;;;;;;;;;;4923809;29;20051;-67
2021/12/27 03:13:01;;;;;;;23.55;20.60;;;;;;;;;;4916145;29;20091;-68
2021/12/27 03:15:27;;;;;;;25.95;21.20;;;;;;;;;;4912629;29;20529;-68
2021/12/27 03:17:54;;;;;;;27.42;21.27;;;;;;;;;;4911080;29;20036;-67
2021/12/27 03:20:22;;;;;;;25.20;20.08;;;;;;;;;;4904750;29;20043;-67
2021/12/27 03:22:53;;;;;;;24.55;19.40;;;;;;;;;;4924737;29;20090;-68
2021/12/27 03:25:22;;;;;;;25.23;21.10;;;;;;;;;;4912004;29;20044;-67
2021/12/27 03:27:48;;;;;;;21.30;19.13;;;;;;;;;;4903939;29;20047;-67
2021/12/27 03:30:17;;;;;;;28.00;21.60;;;;;;;;;;4911916;29;20135;-67
2021/12/27 03:32:44;;;;;;;30.88;23.27;;;;;;;;;;4910528;29;20043;-68
2021/12/27 03:35:14;;;;;;;27.08;21.55;;;;;;;;;;4911037;29;20110;-67
2021/12/27 03:37:45;;;;;;;25.15;22.05;;;;;;;;;;4908370;29;20043;-67
2021/12/27 03:40:13;;;;;;;28.10;21.42;;;;;;;;;;4914489;29;20535;-68
2021/12/27 03:42:39;;;;;;;28.30;20.50;;;;;;;;;;4915249;29;20039;-68
2021/12/27 03:45:07;;;;;;;29.08;23.65;;;;;;;;;;4911412;29;20130;-67
2021/12/27 03:47:33;;;;;;;25.05;22.23;;;;;;;;;;4925967;29;20064;-67
2021/12/27 03:49:58;;;;;;;26.98;22.40;;;;;;;;;;4912791;29;20036;-67
2021/12/27 03:52:24;;;;;;;29.55;23.17;;;;;;;;;;4911143;29;20111;-68
2021/12/27 03:54:49;;;;;;;25.58;20.25;;;;;;;;;;4924183;29;20156;-67
2021/12/27 03:57:16;;;;;;;26.40;22.00;;;;;;;;;;4914857;29;20059;-68
2021/12/27 04:02:09;;;;;;;23.85;21.33;;;;;;;;;;4911662;29;20127;-68
2021/12/27 04:04:35;;;;;;;26.80;22.23;;;;;;;;;;4912135;29;20407;-68
2021/12/27 04:07:00;;;;;;;27.05;22.67;;;;;;;;;;4915684;29;20068;-68
2021/12/27 04:09:27;;;;;;;27.40;22.40;;;;;;;;;;4916979;29;20050;-67
2021/12/27 04:11:53;;;;;;;28.33;23.13;;;;;;;;;;4915029;29;20567;-70
2021/12/27 04:14:18;;;;;;;29.25;21.65;;;;;;;;;;4914503;29;20048;-69
2021/12/27 04:16:46;;;;;;;28.40;21.55;;;;;;;;;;4914209;29;20388;-69
2021/12/27 04:19:13;;;;;;;19.55;17.05;;;;;;;;;;4920409;29;20036;-69
2021/12/27 04:21:39;;;;;;;24.25;19.70;;;;;;;;;;4914687;29;20032;-69
2021/12/27 04:24:05;;;;;;;22.50;20.10;;;;;;;;;;4913281;29;20079;-69
2021/12/27 04:26:30;;;;;;;22.02;19.67;;;;;;;;;;4914032;29;20035;-69
2021/12/27 04:28:56;;;;;;;16.10;14.60;;;;;;;;;;4914586;29;20070;-69
2021/12/27 04:31:22;;;;;;;23.95;21.35;;;;;;;;;;4913840;29;20324;-69
2021/12/27 04:33:48;;;;;;;21.52;18.67;;;;;;;;;;4915717;29;20040;-69
2021/12/27 04:36:14;;;;;;;20.50;18.50;;;;;;;;;;4922108;29;20070;-69
2021/12/27 04:38:42;;;;;;;21.42;19.15;;;;;;;;;;4912838;29;20575;-69
2021/12/27 04:41:11;;;;;;;21.40;19.30;;;;;;;;;;4913211;29;20032;-69
2021/12/27 04:43:36;;;;;;;20.23;18.23;;;;;;;;;;4916928;29;20036;-69
2021/12/27 04:46:02;;;;;;;21.80;19.65;;;;;;;;;;4915367;29;20039;-69
2021/12/27 04:48:28;;;;;;;20.75;18.52;;;;;;;;;;4913601;29;20040;-69
2021/12/27 04:50:54;;;;;;;20.77;18.67;;;;;;;;;;4915563;29;20032;-69
2021/12/27 04:53:20;;;;;;;20.10;18.13;;;;;;;;;;4917957;29;20432;-69
2021/12/27 04:55:47;;;;;;;19.38;17.48;;;;;;;;;;4913997;29;20056;-69
2021/12/27 04:58:16;;;;;;;20.02;18.15;;;;;;;;;;4913516;29;20100;-69
2021/12/27 05:00:43;;;;;;;19.55;17.45;;;;;;;;;;4913898;29;20479;-69
2021/12/27 05:03:09;;;;;;;19.67;17.70;;;;;;;;;;4914514;29;20314;-69
2021/12/27 05:05:36;;;;;;;19.27;17.30;;;;;;;;;;4914347;29;20046;-69
2021/12/27 05:08:02;;;;;;;20.08;17.92;;;;;;;;;;4914594;29;20040;-69
2021/12/27 05:10:30;;;;;;;18.73;16.98;;;;;;;;;;4914574;29;20419;-69
2021/12/27 05:12:55;;;;;;;19.85;17.95;;;;;;;;;;4927320;29;20071;-69
2021/12/27 05:15:21;;;;;;;19.58;17.75;;;;;;;;;;4913632;29;20118;-68
2021/12/27 05:17:47;;;;;;;21.00;18.90;;;;;;;;;;4916118;29;20036;-69
2021/12/27 05:20:13;;;;;;;20.88;18.85;;;;;;;;;;4917776;29;20032;-69
2021/12/27 05:22:40;;;;;;;20.00;18.00;;;;;;;;;;4913424;29;20035;-69
2021/12/27 05:25:09;;;;;;;20.77;18.60;;;;;;;;;;4911931;29;20488;-69
2021/12/27 05:27:36;;;;;;;19.90;17.75;;;;;;;;;;4909660;29;20111;-69
2021/12/27 05:30:03;;;;;;;20.80;18.63;;;;;;;;;;4914585;29;20042;-69
2021/12/27 05:32:28;;;;;;;22.98;18.15;;;;;;;;;;4911283;29;20056;-69
2021/12/27 05:34:54;;;;;;;19.15;17.13;;;;;;;;;;4911181;29;20035;-69
2021/12/27 05:37:20;;;;;;;20.80;18.60;;;;;;;;;;4913698;29;20202;-69
2021/12/27 05:39:47;;;;;;;20.17;18.10;;;;;;;;;;4911786;29;20043;-69
2021/12/27 05:42:13;;;;;;;20.48;18.30;;;;;;;;;;4913516;29;20032;-68
2021/12/27 05:44:38;;;;;;;21.40;18.90;;;;;;;;;;4912927;29;20035;-69
2021/12/27 05:47:04;;;;;;;19.40;17.30;;;;;;;;;;4913097;29;20527;-69
2021/12/27 05:49:30;;;;;;;19.25;17.20;;;;;;;;;;4911685;29;20040;-69
2021/12/27 05:51:55;;;;;;;21.00;18.50;;;;;;;;;;4919554;29;20034;-69
2021/12/27 05:54:21;;;;;;;20.13;17.63;;;;;;;;;;4913656;29;20034;-69
2021/12/27 05:56:48;;;;;;;22.52;18.27;;;;;;;;;;4912653;29;20040;-69
2021/12/27 05:59:16;;;;;;;20.85;18.63;;;;;;;;;;4911193;29;20095;-69
2021/12/27 06:01:43;;;;;;;20.33;18.15;;;;;;;;;;4912924;29;20074;-69
2021/12/27 06:04:09;;;;;;;20.85;18.70;;;;;;;;;;4912445;29;20032;-69
2021/12/27 06:06:36;;;;;;;20.02;17.92;;;;;;;;;;4911338;29;20130;-69
2021/12/27 06:09:04;;;;;;;20.35;18.35;;;;;;;;;;4913952;29;20028;-69
2021/12/27 06:11:30;;;;;;;22.48;19.08;;;;;;;;;;4912951;29;20123;-69
2021/12/27 06:13:55;;;;;;;20.85;18.65;;;;;;;;;;4911509;29;20126;-69
2021/12/27 06:16:21;;;;;;;29.27;19.67;;;;;;;;;;4916634;29;20036;-68
2021/12/27 06:18:47;;;;;;;20.90;18.75;;;;;;;;;;4913039;29;20092;-68
2021/12/27 06:21:13;;;;;;;19.85;17.73;;;;;;;;;;4912271;29;20030;-68
2021/12/27 06:23:38;;;;;;;22.55;18.48;;;;;;;;;;4913650;29;20036;-69
2021/12/27 06:26:05;;;;;;;21.52;19.30;;;;;;;;;;4916195;29;20048;-68
2021/12/27 06:28:32;;;;;;;24.20;20.35;;;;;;;;;;4910842;29;20043;-69
2021/12/27 06:30:58;;;;;;;23.30;19.50;;;;;;;;;;4909242;29;20587;-68
2021/12/27 06:33:25;;;;;;;23.88;17.77;;;;;;;;;;4921578;29;20039;-68
2021/12/27 06:35:50;;;;;;;20.02;17.35;;;;;;;;;;4912345;29;20036;-68
2021/12/27 06:38:16;;;;;;;20.95;17.70;;;;;;;;;;4912377;29;20044;-68
2021/12/27 06:40:42;;;;;;;20.83;17.67;;;;;;;;;;4912246;29;20451;-66
2021/12/27 06:43:07;;;;;;;20.23;17.70;;;;;;;;;;4918704;29;20035;-67
2021/12/27 06:45:33;;;;;;;31.42;23.30;;;;;;;;;;4911301;29;20547;-67
2021/12/27 06:47:58;;;;;;;22.38;18.58;;;;;;;;;;4910825;29;20134;-66
2021/12/27 06:50:24;;;;;;;295.88;140.18;;;;;;;;;;4920294;29;20119;-67
2021/12/27 06:52:50;;;;;;;32.28;22.88;;;;;;;;;;4911995;29;20036;-67
2021/12/27 06:55:16;;;;;;;18.83;16.85;;;;;;;;;;4910608;29;20453;-67
2021/12/27 06:57:42;;;;;;;20.60;18.40;;;;;;;;;;4912640;29;20039;-67
2021/12/27 07:00:11;;;;;;;23.88;20.83;;;;;;;;;;4925455;29;20231;-67
2021/12/27 07:02:37;;;;;;;23.10;18.90;;;;;;;;;;4908462;29;20371;-67
2021/12/27 07:05:04;;;;;;;25.08;19.17;;;;;;;;;;4911055;29;20043;-67
2021/12/27 07:07:29;;;;;;;23.67;20.10;;;;;;;;;;4914937;29;20419;-67
2021/12/27 07:09:55;;;;;;;27.23;24.63;;;;;;;;;;4911286;29;20043;-67
2021/12/27 07:12:21;;;;;;;25.10;21.95;;;;;;;;;;4910723;29;20049;-67
2021/12/27 07:14:48;;;;;;;23.15;20.65;;;;;;;;;;4913752;29;20463;-67
2021/12/27 07:17:15;;;;;;;20.60;18.50;;;;;;;;;;4911351;29;20499;-66
2021/12/27 07:19:41;;;;;;;20.60;18.08;;;;;;;;;;4911081;29;20044;-66
2021/12/27 07:22:07;;;;;;;25.00;22.35;;;;;;;;;;4912186;29;20035;-69
2021/12/27 07:24:33;;;;;;;19.58;17.67;;;;;;;;;;4919370;29;20028;-66
2021/12/27 07:26:59;;;;;;;18.23;16.58;;;;;;;;;;4910677;29;20067;-66
2021/12/27 07:29:25;;;;;;;18.25;16.45;;;;;;;;;;4909309;29;20118;-66
2021/12/27 07:31:50;;;;;;;18.30;16.48;;;;;;;;;;4914611;29;20052;-67
2021/12/27 07:34:19;;;;;;;18.50;16.88;;;;;;;;;;4915428;29;20044;-66
2021/12/27 07:36:48;;;;;;;19.63;17.75;;;;;;;;;;4911868;29;20095;-67
2021/12/27 07:39:14;;;;;;;18.40;16.67;;;;;;;;;;4914112;29;20043;-66
2021/12/27 07:41:40;;;;;;;23.38;20.63;;;;;;;;;;4918451;29;20035;-69
2021/12/27 07:44:08;;;;;;;22.38;20.00;;;;;;;;;;4918559;29;20062;-66
2021/12/27 07:46:35;;;;;;;22.30;20.00;;;;;;;;;;4913917;29;20496;-66
2021/12/27 07:49:02;;;;;;;22.60;20.10;;;;;;;;;;4914544;29;20052;-66
2021/12/27 07:51:28;;;;;;;25.88;20.52;;;;;;;;;;4917713;29;20518;-67
2021/12/27 07:53:54;;;;;;;55.00;31.55;;;;;;;;;;4914114;29;20048;-66
2021/12/27 07:56:19;;;;;;;95.50;18.08;;;;;;;;;;4913621;29;20114;-66
2021/12/27 07:58:45;;;;;;;227.73;20.17;;;;;;;;;;4915889;29;20040;-67
2021/12/27 08:01:11;;;;;;;503.95;25.35;;;;;;;;;;4914210;29;20039;-67
2021/12/27 08:03:36;;;;;;;283.98;26.35;;;;;;;;;;4914757;29;20051;-66
2021/12/27 08:06:02;;;;;;;135.20;22.25;;;;;;;;;;4910100;29;20043;-68
2021/12/27 08:08:28;;;;;;;53.08;20.77;;;;;;;;;;4916276;29;20035;-67
2021/12/27 08:10:54;;;;;;;47.38;18.90;;;;;;;;;;4916938;29;20044;-67
2021/12/27 08:13:21;;;;;;;20.27;18.17;;;;;;;;;;4921474;29;20119;-67
2021/12/27 08:15:46;;;;;;;22.27;19.13;;;;;;;;;;4915978;29;20046;-66
2021/12/27 08:18:12;;;;;;;21.60;19.35;;;;;;;;;;4909002;29;20040;-68
2021/12/27 08:20:37;;;;;;;20.40;17.90;;;;;;;;;;4908935;29;20400;-67
2021/12/27 08:23:03;;;;;;;21.08;18.95;;;;;;;;;;4906020;29;20044;-67
2021/12/27 08:25:29;;;;;;;22.35;17.50;;;;;;;;;;4912553;29;20527;-67
2021/12/27 08:27:55;;;;;;;23.23;17.85;;;;;;;;;;4908705;29;20127;-67
2021/12/27 08:30:21;;;;;;;20.15;18.05;;;;;;;;;;4907869;29;20115;-66
2021/12/27 08:32:47;;;;;;;21.70;19.17;;;;;;;;;;4912144;29;20046;-67
2021/12/27 08:35:14;;;;;;;18.38;16.58;;;;;;;;;;4907347;29;20129;-67
2021/12/27 08:37:41;;;;;;;17.60;15.70;;;;;;;;;;4911809;29;20036;-67
2021/12/27 08:40:07;;;;;;;19.52;17.45;;;;;;;;;;4909147;29;20032;-67
2021/12/27 08:42:33;;;;;;;18.35;16.58;;;;;;;;;;4908536;29;20448;-67
2021/12/27 08:44:59;;;;;;;18.75;16.77;;;;;;;;;;4909133;29;20513;-67
2021/12/27 08:47:25;;;;;;;21.60;19.30;;;;;;;;;;4912280;29;20458;-68
2021/12/27 08:49:50;;;;;;;32.88;21.77;;;;;;;;;;4908643;29;20087;-68
2021/12/27 08:52:16;;;;;;;25.95;19.65;;;;;;;;;;4908507;29;20731;-69
2021/12/27 08:54:41;;;;;;;20.75;18.60;;;;;;;;;;4909445;29;20032;-68
2021/12/27 08:57:09;;;;;;;17.73;16.20;;;;;;;;;;4908807;29;20056;-69
2021/12/27 08:59:36;;;;;;;17.17;15.57;;;;;;;;;;4908786;29;20032;-69
2021/12/27 09:02:03;;;;;;;17.40;15.90;;;;;;;;;;4907958;29;20067;-68
2021/12/27 09:04:28;;;;;;;15.55;14.25;;;;;;;;;;4910952;29;20718;-68
2021/12/27 09:06:54;;;;;;;18.85;17.05;;;;;;;;;;4907852;29;20044;-69
2021/12/27 09:09:21;;;;;;;18.48;16.77;;;;;;;;;;4909510;29;20076;-70
2021/12/27 09:11:47;;;;;;;19.25;17.40;;;;;;;;;;4908056;29;20086;-67
2021/12/27 09:14:14;;;;;;;15.98;14.68;;;;;;;;;;4923230;29;20040;-68
2021/12/27 09:16:40;;;;;;;14.63;13.43;;;;;;;;;;4909266;29;20043;-67
2021/12/27 09:19:05;;;;;;;14.90;13.52;;;;;;;;;;4908080;29;20476;-67
2021/12/27 09:21:31;;;;;;;15.05;13.85;;;;;;;;;;4905476;29;20047;-67
2021/12/27 09:23:57;;;;;;;14.70;13.38;;;;;;;;;;4908617;29;20040;-67
2021/12/27 09:26:22;;;;;;;15.43;14.02;;;;;;;;;;4909296;29;20044;-67
2021/12/27 09:28:48;;;;;;;14.70;13.50;;;;;;;;;;4906778;29;20040;-68
2021/12/27 09:31:14;;;;;;;14.57;13.38;;;;;;;;;;4907850;29;20032;-67
2021/12/27 09:33:40;;;;;;;16.67;15.10;;;;;;;;;;4908120;29;20047;-69
2021/12/27 09:36:06;;;;;;;15.50;14.25;;;;;;;;;;4907497;29;20095;-68
2021/12/27 09:38:32;;;;;;;15.43;14.02;;;;;;;;;;4907014;29;20036;-67
2021/12/27 09:40:58;;;;;;;15.43;14.23;;;;;;;;;;4907679;29;20091;-67
2021/12/27 09:43:26;;;;;;;14.63;13.43;;;;;;;;;;4908575;29;20032;-67
2021/12/27 09:45:52;;;;;;;15.63;14.35;;;;;;;;;;4908928;29;20598;-68
2021/12/27 09:48:17;;;;;;;15.45;14.15;;;;;;;;;;4907647;29;20032;-68
2021/12/27 09:50:48;;;;;;;14.75;13.60;;;;;;;;;;4910815;29;20043;-68
2021/12/27 09:53:14;;;;;;;15.38;14.18;;;;;;;;;;4908557;29;20024;-68
2021/12/27 09:55:40;;;;;;;15.10;13.90;;;;;;;;;;4923102;29;20040;-67
2021/12/27 09:58:06;;;;;;;16.00;14.70;;;;;;;;;;4925748;29;20036;-67
2021/12/27 10:00:33;;;;;;;15.00;13.80;;;;;;;;;;4907252;29;20062;-67
2021/12/27 10:02:59;;;;;;;14.52;13.38;;;;;;;;;;4906925;29;20285;-68
2021/12/27 10:05:28;;;;;;;15.55;14.25;;;;;;;;;;4908989;29;20040;-68
2021/12/27 10:07:55;;;;;;;13.27;12.27;;;;;;;;;;4907518;29;20036;-68
2021/12/27 10:10:20;;;;;;;13.13;12.18;;;;;;;;;;4906618;29;20503;-68
2021/12/27 10:12:47;;;;;;;12.40;11.50;;;;;;;;;;4922925;29;20036;-68
2021/12/27 10:15:16;;;;;;;14.02;12.88;;;;;;;;;;4906258;29;20052;-68
2021/12/27 10:17:44;;;;;;;15.32;13.93;;;;;;;;;;4906503;29;20067;-69
2021/12/27 10:20:10;;;;;;;13.88;12.77;;;;;;;;;;4908014;29;20044;-69
2021/12/27 10:22:47;;;;;;;14.55;13.45;;;;;;;;;;4906543;29;20054;-69
2021/12/27 10:25:14;;;;;;;15.88;14.27;;;;;;;;;;4910705;29;20464;-68
2021/12/27 10:27:39;;;;;;;14.68;13.43;;;;;;;;;;4910514;29;20083;-69
2021/12/27 10:30:18;;;;;;;13.68;12.68;;;;;;;;;;4907763;29;20055;-68
2021/12/27 10:32:44;;;;;;;13.87;12.77;;;;;;;;;;4905847;29;20188;-69
2021/12/27 10:35:11;;;;;;;13.20;12.20;;;;;;;;;;4908109;29;20304;-68
2021/12/27 10:37:39;;;;;;;14.88;13.68;;;;;;;;;;4919737;29;20141;-69
2021/12/27 10:40:12;;;;;;;14.40;13.30;;;;;;;;;;4907530;29;20046;-69
2021/12/27 10:42:43;;;;;;;13.85;12.85;;;;;;;;;;4906761;29;20488;-69
2021/12/27 10:45:11;;;;;;;13.52;12.45;;;;;;;;;;4907481;29;20317;-69
2021/12/27 10:47:48;;;;;;;13.60;12.60;;;;;;;;;;4907952;29;20056;-69
2021/12/27 10:50:23;;;;;;;13.23;12.18;;;;;;;;;;4907297;29;20032;-69
2021/12/27 10:52:52;;;;;;;12.75;11.85;;;;;;;;;;4919412;29;20605;-69
2021/12/27 10:55:20;;;;;;;13.05;11.98;;;;;;;;;;4907274;29;20068;-69
2021/12/27 10:57:47;;;;;;;13.38;12.23;;;;;;;;;;4907699;29;20110;-69
2021/12/27 11:00:18;;;;;;;12.73;11.82;;;;;;;;;;4907043;29;20126;-69
2021/12/27 11:02:44;;;;;;;12.07;11.18;;;;;;;;;;4907165;29;20508;-69
2021/12/27 11:05:19;;;;;;;12.93;11.93;;;;;;;;;;4908462;29;20070;-69
2021/12/27 11:07:45;;;;;;;12.38;11.48;;;;;;;;;;4907666;29;20039;-69
2021/12/27 11:10:11;;;;;;;12.63;11.57;;;;;;;;;;4906025;29;20448;-69
2021/12/27 11:12:37;;;;;;;12.98;12.00;;;;;;;;;;4906223;29;20044;-68
2021/12/27 11:15:03;;;;;;;13.25;12.15;;;;;;;;;;4907126;29;20063;-69
2021/12/27 11:17:29;;;;;;;14.95;13.50;;;;;;;;;;4907630;29;20103;-69
2021/12/27 11:19:55;;;;;;;13.55;12.27;;;;;;;;;;4923551;29;20043;-68
2021/12/27 11:22:21;;;;;;;13.77;12.68;;;;;;;;;;4908135;29;20393;-68
2021/12/27 11:24:46;;;;;;;13.32;12.18;;;;;;;;;;4907309;29;20100;-69
2021/12/27 11:27:13;;;;;;;12.43;11.32;;;;;;;;;;4907134;29;20050;-69
2021/12/27 11:29:39;;;;;;;13.13;12.02;;;;;;;;;;4906651;29;20043;-69
2021/12/27 11:32:15;;;;;;;14.05;12.75;;;;;;;;;;4906607;29;20040;-68
2021/12/27 11:35:03;;;;;;;13.00;11.90;;;;;;;;;;4919396;29;20117;-69
2021/12/27 11:37:42;;;;;;;12.35;11.35;;;;;;;;;;4906861;29;20122;-68
2021/12/27 11:40:17;;;;;;;14.98;13.55;;;;;;;;;;4906526;29;20044;-69
2021/12/27 11:43:00;;;;;;;12.23;11.32;;;;;;;;;;4906813;29;20028;-68
2021/12/27 11:45:54;;;;;;;13.48;12.38;;;;;;;;;;4920697;29;20035;-68
2021/12/27 11:48:22;;;;;;;13.68;12.57;;;;;;;;;;4899634;29;20052;-69
2021/12/27 11:51:03;;;;;;;14.68;13.38;;;;;;;;;;4905082;29;20181;-69
2021/12/27 11:53:41;;;;;;;15.57;14.07;;;;;;;;;;4908130;29;20054;-69
2021/12/27 11:56:09;;;;;;;15.23;13.73;;;;;;;;;;4904977;29;20516;-69
2021/12/27 11:58:36;;;;;;;14.27;13.18;;;;;;;;;;4907187;29;20032;-69
2021/12/27 12:01:26;;;;;;;13.63;12.35;;;;;;;;;;4905665;29;20091;-69
2021/12/27 12:03:54;;;;;;;14.02;12.93;;;;;;;;;;4903098;29;20059;-69
2021/12/27 12:06:44;;;;;;;14.02;12.80;;;;;;;;;;4906485;29;20455;-68
2021/12/27 12:09:12;;;;;;;13.65;12.45;;;;;;;;;;4900318;29;20044;-68
2021/12/27 12:11:38;;;;;;;13.70;12.52;;;;;;;;;;4909927;29;20036;-68
2021/12/27 12:14:25;;;;;;;13.38;12.25;;;;;;;;;;4921572;29;20435;-69
2021/12/27 12:16:52;;;;;;;14.40;13.20;;;;;;;;;;4903979;29;20098;-68
2021/12/27 12:19:53;;;;;;;13.80;12.70;;;;;;;;;;4907861;29;20036;-68
2021/12/27 12:22:44;;;;;;;13.48;12.48;;;;;;;;;;4906698;29;20070;-68
2021/12/27 12:25:19;;;;;;;12.25;11.35;;;;;;;;;;4908953;29;20043;-68
2021/12/27 12:27:52;;;;;;;11.98;11.10;;;;;;;;;;4910319;29;20086;-69
2021/12/27 12:30:18;;;;;;;15.00;13.65;;;;;;;;;;4909434;29;20036;-68
2021/12/27 12:33:00;;;;;;;13.90;12.70;;;;;;;;;;4910647;29;20032;-69
2021/12/27 12:35:46;;;;;;;12.57;11.68;;;;;;;;;;4908982;29;20044;-68
2021/12/27 12:38:26;;;;;;;14.02;12.85;;;;;;;;;;4906724;29;20115;-69
2021/12/27 12:41:00;;;;;;;;;;;;;;;;;;4909113;29;20040;-68
2021/12/27 12:43:50;;;;;;;13.68;12.57;;;;;;;;;;4914226;29;19919;-68
2021/12/27 12:46:41;;;;;;;14.07;12.98;;;;;;;;;;4909000;29;20423;-68
2021/12/27 12:49:22;;;;;;;13.45;12.40;;;;;;;;;;4907572;29;20044;-68
2021/12/27 12:51:59;;;;;;;14.10;12.90;;;;;;;;;;4910572;29;20042;-68
2021/12/27 12:54:39;;;;;;;15.10;13.80;;;;;;;;;;4908762;29;20040;-68
2021/12/27 12:57:16;;;;;;;15.73;14.27;;;;;;;;;;4907625;29;20641;-69
2021/12/27 12:59:52;;;;;;;14.20;13.00;;;;;;;;;;4920015;29;20044;-68
2021/12/27 13:02:26;;;;;;;14.30;13.02;;;;;;;;;;4911904;29;20035;-68
2021/12/27 13:05:03;;;;;;;15.10;13.82;;;;;;;;;;4906867;29;20040;-68
2021/12/27 13:07:54;;;;;;;15.35;13.95;;;;;;;;;;4908903;29;20043;-68
2021/12/27 13:10:34;;;;;;;15.43;14.13;;;;;;;;;;4907878;29;20051;-69
2021/12/27 13:13:22;;;;;;;14.88;13.38;;;;;;;;;;4909462;29;20039;-68
2021/12/27 13:15:56;;;;;;;13.50;12.30;;;;;;;;;;4907473;29;20510;-68
2021/12/27 13:18:27;;;;;;;14.45;13.07;;;;;;;;;;4913143;29;20120;-69
2021/12/27 13:21:01;;;;;;;14.18;13.07;;;;;;;;;;4908834;29;20040;-69
2021/12/27 13:23:29;;;;;;;15.10;13.80;;;;;;;;;;4904891;29;20039;-68
2021/12/27 13:25:59;;;;;;;15.45;14.02;;;;;;;;;;4908742;29;20581;-67
2021/12/27 13:28:33;;;;;;;13.25;12.25;;;;;;;;;;4908760;29;20121;-66
2021/12/27 13:31:10;;;;;;;14.07;12.88;;;;;;;;;;4908775;29;20049;-70
2021/12/27 13:33:36;;;;;;;13.82;12.52;;;;;;;;;;4909124;29;20046;-67
2021/12/27 13:36:04;;;;;;;49.63;25.15;;;;;;;;;;4909988;29;20036;-67
2021/12/27 13:38:35;;;;;;;34.80;19.90;;;;;;;;;;4909843;29;20039;-68
2021/12/27 13:41:10;;;;;;;21.92;16.15;;;;;;;;;;4907490;29;20048;-69
2021/12/27 13:43:54;;;;;;;24.50;15.95;;;;;;;;;;4906769;29;20449;-69
2021/12/27 13:46:24;;;;;;;19.95;15.13;;;;;;;;;;4905924;29;20084;-68
2021/12/27 13:48:51;;;;;;;14.00;12.80;;;;;;;;;;4896732;29;20051;-68
2021/12/27 13:51:22;;;;;;;14.95;13.65;;;;;;;;;;4905418;29;20191;-68
2021/12/27 13:53:56;;;;;;;14.95;13.48;;;;;;;;;;4902194;29;20527;-68
2021/12/27 13:56:23;;;;;;;16.23;14.82;;;;;;;;;;4911688;29;20353;-68
2021/12/27 13:58:49;;;;;;;18.88;17.17;;;;;;;;;;4911862;29;20036;-68
2021/12/27 14:01:19;;;;;;;19.15;16.73;;;;;;;;;;4905699;29;20797;-68
2021/12/27 14:03:48;;;;;;;21.88;17.50;;;;;;;;;;4906838;29;20127;-68
2021/12/27 14:06:15;;;;;;;16.95;15.15;;;;;;;;;;4910286;29;20369;-68
2021/12/27 14:09:01;;;;;;;14.57;13.30;;;;;;;;;;4907208;29;20040;-68
2021/12/27 14:11:28;;;;;;;15.65;13.68;;;;;;;;;;4904355;29;20047;-67
2021/12/27 14:14:02;;;;;;;16.05;14.75;;;;;;;;;;4906142;29;20044;-68
2021/12/27 14:16:36;;;;;;;14.48;13.27;;;;;;;;;;4909291;29;20035;-68
2021/12/27 14:19:06;;;;;;;16.23;14.82;;;;;;;;;;4906450;29;20455;-68
2021/12/27 14:21:33;;;;;;;22.92;18.33;;;;;;;;;;4905610;29;20196;-68
2021/12/27 14:24:07;;;;;;;16.55;15.05;;;;;;;;;;4909342;29;20039;-67
2021/12/27 14:26:34;;;;;;;13.82;12.70;;;;;;;;;;4913114;29;20168;-66
2021/12/27 14:29:19;;;;;;;15.15;13.85;;;;;;;;;;4920855;29;20495;-67
2021/12/27 14:31:50;;;;;;;14.60;13.40;;;;;;;;;;4906395;29;20510;-67
2021/12/27 14:34:34;;;;;;;17.00;15.45;;;;;;;;;;4906285;29;20127;-68